createdAt,value
2022-09-18T00:00:25.582Z,100647.91
2022-09-18T00:02:53.048Z,100644.69
2022-09-18T00:05:20.543Z,100646.88
2022-09-18T00:07:47.987Z,100648.34
2022-09-18T00:10:15.493Z,100641.94
2022-09-18T00:12:42.942Z,100640.47
2022-09-18T00:15:10.842Z,100643.69
2022-09-18T00:17:39.628Z,100643.59
2022-09-18T00:20:09.055Z,100647.53
2022-09-18T00:22:36.684Z,100646.88
2022-09-18T00:25:04.802Z,100643.59
2022-09-18T00:27:32.249Z,100641.94
2022-09-18T00:29:59.704Z,100644.06
2022-09-18T00:32:27.131Z,100652.50
2022-09-18T00:34:55.936Z,100644.34
2022-09-18T00:37:23.396Z,100647.53
2022-09-18T00:39:50.895Z,100646.88
2022-09-18T00:42:21.226Z,100639.63
2022-09-18T00:44:49.563Z,100641.75
2022-09-18T00:47:27.548Z,100650.94
2022-09-18T00:50:02.380Z,100645.97
2022-09-18T00:52:34.401Z,100646.81
2022-09-18T00:55:04.305Z,100644.88
2022-09-18T00:57:33.884Z,100645.81
2022-09-18T01:00:02.562Z,100633.03
2022-09-18T01:02:30.101Z,100636.97
2022-09-18T01:04:58.955Z,100641.75
2022-09-18T01:07:36.654Z,100646.72
2022-09-18T01:10:14.833Z,100639.75
2022-09-18T01:12:47.180Z,100640.66
2022-09-18T01:15:20.565Z,100642.28
2022-09-18T01:17:53.915Z,100633.19
2022-09-18T01:20:41.794Z,100639.53
2022-09-18T01:23:15.946Z,100641.31
2022-09-18T01:25:55.785Z,100641.94
2022-09-18T01:28:27.915Z,100633.94
2022-09-18T01:30:58.423Z,100632.31
2022-09-18T01:33:29.695Z,100633.94
2022-09-18T01:36:00.305Z,100631.75
2022-09-18T01:38:30.791Z,100639.63
2022-09-18T01:41:02.315Z,100635.81
2022-09-18T01:43:31.856Z,100641.75
2022-09-18T01:46:04.261Z,100635.16
2022-09-18T01:48:33.378Z,100635.81
2022-09-18T01:51:05.714Z,100636.91
2022-09-18T01:53:36.549Z,100636.91
2022-09-18T01:56:08.984Z,100635.44
2022-09-18T01:58:38.284Z,100630.75
2022-09-18T02:01:09.986Z,100629.63
2022-09-18T02:03:40.698Z,100634.78
2022-09-18T02:06:11.041Z,100633.84
2022-09-18T02:08:42.854Z,100627.13
2022-09-18T02:11:12.269Z,100631.00
2022-09-18T02:13:44.615Z,100625.50
2022-09-18T02:16:17.082Z,100635.88
2022-09-18T02:18:48.353Z,100625.44
2022-09-18T02:21:20.780Z,100628.84
2022-09-18T02:23:48.474Z,100617.13
2022-09-18T02:26:16.337Z,100615.59
2022-09-18T02:28:45.731Z,100622.94
2022-09-18T02:31:13.374Z,100628.47
2022-09-18T02:33:40.959Z,100625.16
2022-09-18T02:36:29.910Z,100626.16
2022-09-18T02:39:03.099Z,100617.16
2022-09-18T02:41:36.277Z,100611.84
2022-09-18T02:44:10.338Z,100618.44
2022-09-18T02:46:43.900Z,100613.59
2022-09-18T02:49:13.257Z,100620.44
2022-09-18T02:51:45.527Z,100608.81
2022-09-18T02:54:14.816Z,100606.50
2022-09-18T02:56:44.992Z,100606.88
2022-09-18T02:59:18.198Z,100599.88
2022-09-18T03:01:46.612Z,100603.16
2022-09-18T03:04:15.969Z,100603.09
2022-09-18T03:06:43.399Z,100600.53
2022-09-18T03:09:10.853Z,100594.09
2022-09-18T03:11:38.303Z,100594.38
2022-09-18T03:14:05.841Z,100596.50
2022-09-18T03:16:34.879Z,100590.69
2022-09-18T03:19:02.609Z,100590.44
2022-09-18T03:21:30.129Z,100590.03
2022-09-18T03:23:57.863Z,100589.38
2022-09-18T03:26:25.448Z,100594.44
2022-09-18T03:28:52.910Z,100594.72
2022-09-18T03:31:20.544Z,100595.28
2022-09-18T03:33:49.368Z,100592.97
2022-09-18T03:36:16.795Z,100592.97
2022-09-18T03:38:44.253Z,100592.31
2022-09-18T03:41:11.712Z,100596.81
2022-09-18T03:43:39.688Z,100598.31
2022-09-18T03:46:07.158Z,100597.72
2022-09-18T03:48:34.693Z,100591.13
2022-09-18T03:51:03.461Z,100587.41
2022-09-18T03:53:30.905Z,100596.28
2022-09-18T03:55:58.332Z,100596.66
2022-09-18T03:58:25.796Z,100591.06
2022-09-18T04:00:53.243Z,100602.09
2022-09-18T04:03:20.746Z,100597.94
2022-09-18T04:05:49.552Z,100599.94
2022-09-18T04:08:19.165Z,100598.22
2022-09-18T04:10:48.470Z,100605.38
2022-09-18T04:13:16.264Z,100594.91
2022-09-18T04:15:45.146Z,100595.53
2022-09-18T04:18:12.707Z,100595.53
2022-09-18T04:20:40.180Z,100596.44
2022-09-18T04:23:07.642Z,100601.31
2022-09-18T04:25:36.449Z,100589.38
2022-09-18T04:28:03.961Z,100596.81
2022-09-18T04:30:31.379Z,100592.88
2022-09-18T04:32:58.838Z,100603.88
2022-09-18T04:35:26.574Z,100596.59
2022-09-18T04:37:54.056Z,100589.34
2022-09-18T04:40:22.049Z,100601.97
2022-09-18T04:42:50.960Z,100611.16
2022-09-18T04:45:18.606Z,100600.88
2022-09-18T04:47:46.355Z,100601.31
2022-09-18T04:50:15.046Z,100605.47
2022-09-18T04:52:42.496Z,100610.84
2022-09-18T04:55:10.511Z,100610.56
2022-09-18T04:57:37.988Z,100613.09
2022-09-18T05:00:09.315Z,100607.94
2022-09-18T05:02:38.730Z,100604.72
2022-09-18T05:05:06.841Z,100609.59
2022-09-18T05:07:34.292Z,100598.78
2022-09-18T05:10:04.913Z,100610.47
2022-09-18T05:12:32.650Z,100601.53
2022-09-18T05:15:00.721Z,100604.91
2022-09-18T05:17:29.717Z,100606.03
2022-09-18T05:19:57.378Z,100601.16
2022-09-18T05:22:25.249Z,100596.47
2022-09-18T05:24:53.029Z,100606.78
2022-09-18T05:27:26.119Z,100602.94
2022-09-18T05:29:54.483Z,100598.78
2022-09-18T05:32:24.398Z,100606.00
2022-09-18T05:34:53.384Z,100606.97
2022-09-18T05:37:21.221Z,100613.38
2022-09-18T05:39:48.858Z,100617.06
2022-09-18T05:42:16.673Z,100612.81
2022-09-18T05:44:44.327Z,100619.63
2022-09-18T05:47:12.109Z,100622.13
2022-09-18T05:49:39.919Z,100626.56
2022-09-18T05:52:09.388Z,100610.25
2022-09-18T05:54:37.005Z,100618.06
2022-09-18T05:57:04.902Z,100619.53
2022-09-18T05:59:32.455Z,100625.44
2022-09-18T06:02:00.079Z,100609.75
2022-09-18T06:04:27.757Z,100616.41
2022-09-18T06:06:55.409Z,100609.44
2022-09-18T06:09:24.348Z,100615.19
2022-09-18T06:11:53.344Z,100612.34
2022-09-18T06:14:22.992Z,100615.66
2022-09-18T06:16:50.700Z,100620.22
2022-09-18T06:19:18.373Z,100615.53
2022-09-18T06:21:47.011Z,100627.97
2022-09-18T06:24:15.038Z,100623.56
2022-09-18T06:26:44.168Z,100624.88
2022-09-18T06:29:14.652Z,100633.28
2022-09-18T06:31:43.033Z,100625.31
2022-09-18T06:34:12.029Z,100621.63
2022-09-18T06:36:39.855Z,100630.00
2022-09-18T06:39:08.062Z,100629.75
2022-09-18T06:41:35.831Z,100631.78
2022-09-18T06:44:04.817Z,100633.44
2022-09-18T06:46:32.597Z,100632.47
2022-09-18T06:49:00.281Z,100631.03
2022-09-18T06:51:27.894Z,100633.44
2022-09-18T06:53:55.508Z,100627.34
2022-09-18T06:56:23.139Z,100627.34
2022-09-18T06:58:53.115Z,100623.72
2022-09-18T07:01:24.296Z,100625.31
2022-09-18T07:03:52.030Z,100622.16
2022-09-18T07:06:19.707Z,100620.78
2022-09-18T07:08:47.345Z,100622.63
2022-09-18T07:11:15.011Z,100633.56
2022-09-18T07:13:42.737Z,100635.13
2022-09-18T07:16:10.677Z,100639.50
2022-09-18T07:18:39.811Z,100635.66
2022-09-18T07:21:07.402Z,100638.13
2022-09-18T07:23:35.781Z,100644.06
2022-09-18T07:26:04.140Z,100650.75
2022-09-18T07:28:31.937Z,100649.41
2022-09-18T07:31:04.137Z,100645.91
2022-09-18T07:33:32.328Z,100647.88
2022-09-18T07:36:02.193Z,100652.66
2022-09-18T07:38:30.129Z,100657.59
2022-09-18T07:40:57.700Z,100655.59
2022-09-18T07:43:25.420Z,100651.09
2022-09-18T07:45:52.955Z,100642.84
2022-09-18T07:48:20.644Z,100641.97
2022-09-18T07:50:48.409Z,100648.19
2022-09-18T07:53:18.616Z,100652.28
2022-09-18T07:55:47.917Z,100645.03
2022-09-18T07:58:15.730Z,100645.78
2022-09-18T08:00:43.222Z,100641.31
2022-09-18T08:03:12.357Z,100642.22
2022-09-18T08:05:40.664Z,100645.81
2022-09-18T08:08:10.024Z,100640.66
2022-09-18T08:10:39.214Z,100633.38
2022-09-18T08:13:07.791Z,100644.41
2022-09-18T08:15:37.379Z,100632.00
2022-09-18T08:18:05.071Z,100635.34
2022-09-18T08:20:32.561Z,100637.63
2022-09-18T08:23:00.098Z,100636.31
2022-09-18T08:25:28.366Z,100633.78
2022-09-18T08:27:59.749Z,100642.44
2022-09-18T08:30:27.196Z,100648.09
2022-09-18T08:32:58.698Z,100642.56
2022-09-18T08:35:26.176Z,100641.47
2022-09-18T08:37:53.722Z,100645.44
2022-09-18T08:40:24.294Z,100635.00
2022-09-18T08:43:03.917Z,100638.31
2022-09-18T08:45:40.154Z,100638.38
2022-09-18T08:48:12.841Z,100641.25
2022-09-18T08:50:41.881Z,100640.03
2022-09-18T08:53:14.322Z,100633.44
2022-09-18T08:55:44.134Z,100627.94
2022-09-18T08:58:15.420Z,100624.59
2022-09-18T09:00:45.163Z,100630.97
2022-09-18T09:03:21.682Z,100641.47
2022-09-18T09:05:52.292Z,100632.97
2022-09-18T09:08:32.161Z,100634.56
2022-09-18T09:11:03.827Z,100624.06
2022-09-18T09:13:54.962Z,100625.97
2022-09-18T09:16:27.094Z,100622.28
2022-09-18T09:19:00.078Z,100624.50
2022-09-18T09:21:41.628Z,100623.16
2022-09-18T09:24:20.886Z,100624.59
2022-09-18T09:26:49.988Z,100629.53
2022-09-18T09:29:23.148Z,100623.63
2022-09-18T09:31:53.900Z,100614.19
2022-09-18T09:34:23.338Z,100611.31
2022-09-18T09:36:53.348Z,100605.59
2022-09-18T09:39:23.935Z,100609.91
2022-09-18T09:41:54.777Z,100610.09
2022-09-18T09:44:31.723Z,100607.84
2022-09-18T09:47:02.498Z,100617.94
2022-09-18T09:49:32.952Z,100616.09
2022-09-18T09:52:09.099Z,100606.03
2022-09-18T09:54:37.209Z,100613.59
2022-09-18T09:57:11.084Z,100613.38
2022-09-18T09:59:47.257Z,100608.06
2022-09-18T10:02:31.167Z,100617.53
2022-09-18T10:05:04.383Z,100617.56
2022-09-18T10:07:36.030Z,100618.38
2022-09-18T10:10:08.418Z,100631.97
2022-09-18T10:12:44.435Z,100628.06
2022-09-18T10:15:17.778Z,100620.44
2022-09-18T10:17:46.257Z,100619.00
2022-09-18T10:20:16.411Z,100625.56
2022-09-18T10:22:44.479Z,100610.97
2022-09-18T10:25:18.207Z,100607.22
2022-09-18T10:27:45.694Z,100627.75
2022-09-18T10:30:16.339Z,100629.19
2022-09-18T10:32:43.885Z,100634.28
2022-09-18T10:35:44.766Z,100639.72
2022-09-18T10:38:35.177Z,100627.53
2022-09-18T10:41:17.566Z,100617.47
2022-09-18T10:43:58.310Z,100605.53
2022-09-18T10:46:30.444Z,100610.88
2022-09-18T10:49:00.468Z,100614.97
2022-09-18T10:51:29.270Z,100616.63
2022-09-18T10:54:05.934Z,100620.09
2022-09-18T10:56:33.729Z,100609.63
2022-09-18T10:59:32.075Z,100613.28
2022-09-18T11:02:02.330Z,100600.59
2022-09-18T11:04:30.164Z,100597.13
2022-09-18T11:06:58.910Z,100589.72
2022-09-18T11:09:31.858Z,100599.81
2022-09-18T11:12:00.851Z,100589.53
2022-09-18T11:14:30.931Z,100575.75
2022-09-18T11:17:01.930Z,100583.34
2022-09-18T11:19:31.082Z,100580.47
2022-09-18T11:22:01.080Z,100580.47
2022-09-18T11:24:31.228Z,100590.56
2022-09-18T11:26:59.924Z,100587.91
2022-09-18T11:29:32.402Z,100579.47
2022-09-18T11:32:05.372Z,100576.78
2022-09-18T11:34:34.607Z,100591.41
2022-09-18T11:37:04.003Z,100575.13
2022-09-18T11:39:36.391Z,100578.03
2022-09-18T11:42:10.045Z,100586.66
2022-09-18T11:44:39.716Z,100582.34
2022-09-18T11:47:23.142Z,100576.38
2022-09-18T11:49:57.084Z,100576.75
2022-09-18T11:52:29.222Z,100580.47
2022-09-18T11:54:59.502Z,100562.56
2022-09-18T11:57:29.997Z,100576.34
2022-09-18T11:59:59.755Z,100575.53
2022-09-18T12:02:34.871Z,100588.28
2022-09-18T12:05:10.888Z,100594.88
2022-09-18T12:07:41.976Z,100586.66
2022-09-18T12:10:16.488Z,100588.09
2022-09-18T12:12:45.962Z,100591.59
2022-09-18T12:15:16.905Z,100591.19
2022-09-18T12:17:50.055Z,100589.53
2022-09-18T12:20:22.695Z,100580.66
2022-09-18T12:22:53.674Z,100575.13
2022-09-18T12:25:25.986Z,100586.66
2022-09-18T12:27:57.369Z,100577.59
2022-09-18T12:30:29.338Z,100573.50
2022-09-18T12:33:09.491Z,100568.34
2022-09-18T12:35:48.428Z,100574.28
2022-09-18T12:38:23.565Z,100580.06
2022-09-18T12:41:07.769Z,100566.91
2022-09-18T12:43:51.248Z,100574.75
2022-09-18T12:46:33.633Z,100577.19
2022-09-18T12:49:18.219Z,100564.84
2022-09-18T12:51:47.795Z,100565.47
2022-09-18T12:54:44.306Z,100560.72
2022-09-18T12:57:20.694Z,100562.97
2022-09-18T12:59:55.807Z,100554.53
2022-09-18T13:02:29.049Z,100547.94
2022-09-18T13:05:03.160Z,100552.47
2022-09-18T13:07:33.227Z,100552.06
2022-09-18T13:10:05.295Z,100548.16
2022-09-18T13:12:37.585Z,100546.91
2022-09-18T13:15:10.908Z,100547.94
2022-09-18T13:17:43.921Z,100540.53
2022-09-18T13:20:17.312Z,100550.59
2022-09-18T13:22:46.936Z,100530.84
2022-09-18T13:25:27.108Z,100525.69
2022-09-18T13:27:55.514Z,100533.09
2022-09-18T13:30:31.812Z,100545.25
2022-09-18T13:33:02.801Z,100530.59
2022-09-18T13:35:34.104Z,100532.47
2022-09-18T13:38:14.934Z,100517.25
2022-09-18T13:40:44.713Z,100521.94
2022-09-18T13:43:19.301Z,100523.59
2022-09-18T13:45:47.157Z,100520.09
2022-09-18T13:48:21.975Z,100520.31
2022-09-18T13:50:54.117Z,100532.66
2022-09-18T13:53:32.700Z,100530.59
2022-09-18T13:56:01.737Z,100529.13
2022-09-18T13:58:50.051Z,100526.91
2022-09-18T14:02:01.494Z,100526.91
2022-09-18T14:05:10.104Z,100523.16
2022-09-18T14:08:14.523Z,100523.00
2022-09-18T14:11:15.720Z,100531.66
2022-09-18T14:13:48.905Z,100528.16
2022-09-18T14:16:29.503Z,100533.09
2022-09-18T14:19:00.851Z,100541.31
2022-09-18T14:21:31.917Z,100535.16
2022-09-18T14:24:25.358Z,100531.03
2022-09-18T14:27:18.895Z,100519.91
2022-09-18T14:29:48.858Z,100533.91
2022-09-18T14:32:20.407Z,100523.63
2022-09-18T14:34:48.699Z,100515.38
2022-09-18T14:37:27.873Z,100520.56
2022-09-18T14:39:58.776Z,100517.66
2022-09-18T14:42:33.504Z,100516.66
2022-09-18T14:45:20.334Z,100521.63
2022-09-18T14:47:50.097Z,100504.50
2022-09-18T14:50:30.786Z,100506.38
2022-09-18T14:52:59.746Z,100518.91
2022-09-18T14:55:35.045Z,100507.59
2022-09-18T14:58:05.639Z,100505.56
2022-09-18T15:00:38.347Z,100513.34
2022-09-18T15:03:10.797Z,100504.31
2022-09-18T15:05:38.824Z,100509.06
2022-09-18T15:08:08.349Z,100499.19
2022-09-18T15:10:39.949Z,100495.06
2022-09-18T15:13:09.458Z,100501.44
2022-09-18T15:15:39.646Z,100502.28
2022-09-18T15:18:18.914Z,100505.34
2022-09-18T15:20:50.347Z,100496.91
2022-09-18T15:23:19.803Z,100487.22
2022-09-18T15:25:59.144Z,100489.28
2022-09-18T15:28:28.282Z,100490.75
2022-09-18T15:31:00.852Z,100495.28
2022-09-18T15:33:28.960Z,100487.25
2022-09-18T15:35:57.502Z,100478.59
2022-09-18T15:38:26.968Z,100481.28
2022-09-18T15:40:56.024Z,100489.06
2022-09-18T15:43:43.613Z,100474.28
2022-09-18T15:46:12.949Z,100473.84
2022-09-18T15:48:46.306Z,100485.78
2022-09-18T15:51:16.054Z,100469.75
2022-09-18T15:54:02.486Z,100477.13
2022-09-18T15:56:34.050Z,100478.56
2022-09-18T15:59:05.848Z,100474.66
2022-09-18T16:01:36.223Z,100474.88
2022-09-18T16:04:18.056Z,100479.41
2022-09-18T16:06:52.756Z,100475.91
2022-09-18T16:09:43.786Z,100486.09
2022-09-18T16:13:14.019Z,100478.09
2022-09-18T16:15:47.371Z,100466.81
2022-09-18T16:18:33.017Z,100475.91
2022-09-18T16:21:05.469Z,100480.13
2022-09-18T16:23:35.682Z,100467.59
2022-09-18T16:26:11.725Z,100469.38
2022-09-18T16:28:44.505Z,100455.84
2022-09-18T16:31:15.474Z,100453.34
2022-09-18T16:33:55.282Z,100461.56
2022-09-18T16:36:33.099Z,100457.47
2022-09-18T16:39:02.448Z,100466.06
2022-09-18T16:41:36.264Z,100455.31
2022-09-18T16:44:06.936Z,100450.22
2022-09-18T16:46:39.565Z,100454.47
2022-09-18T16:49:10.616Z,100458.47
2022-09-18T16:51:38.688Z,100455.59
2022-09-18T16:54:06.987Z,100463.38
2022-09-18T16:56:36.892Z,100468.31
2022-09-18T16:59:04.832Z,100470.78
2022-09-18T17:01:54.137Z,100478.50
2022-09-18T17:04:24.190Z,100473.94
2022-09-18T17:06:51.630Z,100476.03
2022-09-18T17:09:19.381Z,100477.66
2022-09-18T17:11:47.191Z,100470.19
2022-09-18T17:14:14.714Z,100475.91
2022-09-18T17:16:44.820Z,100467.38
2022-09-18T17:19:15.162Z,100470.13
2022-09-18T17:21:42.935Z,100470.13
2022-09-18T17:24:10.985Z,100462.72
2022-09-18T17:26:39.715Z,100457.38
2022-09-18T17:29:08.210Z,100456.91
2022-09-18T17:31:35.705Z,100455.03
2022-09-18T17:34:05.666Z,100462.63
2022-09-18T17:36:35.855Z,100464.72
2022-09-18T17:39:03.769Z,100454.44
2022-09-18T17:41:33.097Z,100467.78
2022-09-18T17:44:00.775Z,100463.03
2022-09-18T17:46:28.575Z,100461.41
2022-09-18T17:48:56.635Z,100469.84
2022-09-18T17:51:28.720Z,100458.56
2022-09-18T17:53:58.913Z,100460.56
2022-09-18T17:56:29.929Z,100458.59
2022-09-18T17:58:59.593Z,100456.50
2022-09-18T18:01:28.816Z,100460.03
2022-09-18T18:03:57.218Z,100456.50
2022-09-18T18:06:26.374Z,100466.16
2022-09-18T18:08:54.211Z,100462.84
2022-09-18T18:11:23.719Z,100457.47
2022-09-18T18:13:52.253Z,100456.06
2022-09-18T18:16:23.605Z,100452.94
2022-09-18T18:18:52.179Z,100454.25
2022-09-18T18:21:19.886Z,100456.34
2022-09-18T18:23:49.059Z,100456.78
2022-09-18T18:26:16.784Z,100465.53
2022-09-18T18:28:45.164Z,100467.34
2022-09-18T18:31:14.498Z,100455.88
2022-09-18T18:33:43.588Z,100461.06
2022-09-18T18:36:13.056Z,100464.44
2022-09-18T18:38:41.404Z,100462.72
2022-09-18T18:41:12.450Z,100464.81
2022-09-18T18:43:41.104Z,100463.03
2022-09-18T18:46:12.756Z,100462.00
2022-09-18T18:48:41.040Z,100461.72
2022-09-18T18:51:10.061Z,100468.09
2022-09-18T18:53:38.656Z,100480.06
2022-09-18T18:56:08.411Z,100502.16
2022-09-18T18:58:37.793Z,100523.63
2022-09-18T19:01:06.426Z,100531.34
2022-09-18T19:03:39.333Z,100530.59
2022-09-18T19:06:07.848Z,100541.69
2022-09-18T19:08:35.811Z,100533.47
2022-09-18T19:11:05.668Z,100532.97
2022-09-18T19:13:44.209Z,100537.34
2022-09-18T19:16:14.485Z,100538.88
2022-09-18T19:18:42.356Z,100549.41
2022-09-18T19:21:09.983Z,100548.16
2022-09-18T19:23:37.761Z,100556.69
2022-09-18T19:26:05.607Z,100565.22
2022-09-18T19:28:34.123Z,100563.75
2022-09-18T19:31:05.509Z,100562.25
2022-09-18T19:33:34.494Z,100569.63
2022-09-18T19:36:06.001Z,100576.97
2022-09-18T19:38:36.367Z,100578.06
2022-09-18T19:41:06.077Z,100589.72
2022-09-18T19:43:37.164Z,100589.34
2022-09-18T19:46:05.872Z,100578.16
2022-09-18T19:48:35.023Z,100576.66
2022-09-18T19:51:02.672Z,100572.47
2022-09-18T19:53:31.134Z,100584.03
2022-09-18T19:55:59.138Z,100579.69
2022-09-18T19:58:27.254Z,100594.56
2022-09-18T20:00:55.126Z,100585.97
2022-09-18T20:03:22.830Z,100594.13
2022-09-18T20:05:51.940Z,100596.69
2022-09-18T20:08:19.579Z,100596.31
2022-09-18T20:10:48.309Z,100593.25
2022-09-18T20:13:15.932Z,100585.88
2022-09-18T20:15:45.314Z,100597.59
2022-09-18T20:18:13.363Z,100597.69
2022-09-18T20:20:42.487Z,100606.59
2022-09-18T20:23:11.769Z,100599.38
2022-09-18T20:25:40.184Z,100605.69
2022-09-18T20:28:07.825Z,100589.66
2022-09-18T20:30:35.466Z,100589.66
2022-09-18T20:33:04.263Z,100589.84
2022-09-18T20:35:31.934Z,100590.53
2022-09-18T20:38:04.055Z,100593.19
2022-09-18T20:40:33.732Z,100591.03
2022-09-18T20:43:04.291Z,100575.97
2022-09-18T20:45:31.908Z,100574.94
2022-09-18T20:48:03.990Z,100569.59
2022-09-18T20:50:31.490Z,100535.97
2022-09-18T20:53:02.345Z,100534.69
2022-09-18T20:55:30.006Z,100566.34
2022-09-18T20:58:02.132Z,100580.97
2022-09-18T21:00:30.154Z,100577.94
2022-09-18T21:02:57.770Z,100566.78
2022-09-18T21:05:27.078Z,100572.59
2022-09-18T21:08:00.745Z,100573.47
2022-09-18T21:10:30.452Z,100576.66
2022-09-18T21:12:59.763Z,100583.84
2022-09-18T21:15:28.573Z,100580.84
2022-09-18T21:17:55.989Z,100588.94
2022-09-18T21:20:23.666Z,100592.97
2022-09-18T21:23:08.739Z,100588.22
2022-09-18T21:25:36.284Z,100592.91
2022-09-18T21:28:05.949Z,100592.19
2022-09-18T21:30:33.416Z,100589.59
2022-09-18T21:33:01.743Z,100573.59
2022-09-18T21:35:29.173Z,100581.19
2022-09-18T21:37:56.632Z,100574.13
2022-09-18T21:40:24.416Z,100587.38
2022-09-18T21:42:52.962Z,100586.72
2022-09-18T21:45:21.746Z,100594.41
2022-09-18T21:47:50.673Z,100589.22
2022-09-18T21:50:19.088Z,100588.88
2022-09-18T21:52:46.506Z,100584.94
2022-09-18T21:55:13.950Z,100589.13
2022-09-18T21:57:41.398Z,100598.03
2022-09-18T22:00:10.037Z,100589.22
2022-09-18T22:02:43.142Z,100586.34
2022-09-18T22:05:11.638Z,100587.94
2022-09-18T22:07:39.190Z,100597.78
2022-09-18T22:10:08.025Z,100598.63
2022-09-18T22:12:38.941Z,100619.63
2022-09-18T22:15:07.321Z,100613.63
2022-09-18T22:17:39.251Z,100622.50
2022-09-18T22:20:07.823Z,100609.22
2022-09-18T22:22:35.326Z,100621.16
2022-09-18T22:25:03.181Z,100624.84
2022-09-18T22:27:30.615Z,100618.88
2022-09-18T22:29:58.042Z,100623.69
2022-09-18T22:32:25.836Z,100627.19
2022-09-18T22:34:54.622Z,100624.84
2022-09-18T22:37:22.284Z,100626.78
2022-09-18T22:39:49.716Z,100634.78
2022-09-18T22:42:17.392Z,100642.41
2022-09-18T22:44:44.873Z,100636.94
2022-09-18T22:47:12.510Z,100645.91
2022-09-18T22:49:39.930Z,100648.06
2022-09-18T22:52:08.684Z,100643.09
2022-09-18T22:54:36.177Z,100634.63
2022-09-18T22:57:03.779Z,100636.31
2022-09-18T22:59:31.211Z,100637.81
2022-09-18T23:02:00.044Z,100630.50
2022-09-18T23:04:30.969Z,100635.66
2022-09-18T23:06:59.336Z,100644.59
2022-09-18T23:09:29.118Z,100651.41
2022-09-18T23:11:57.631Z,100652.72
2022-09-18T23:14:27.553Z,100636.44
2022-09-18T23:16:55.919Z,100650.03
2022-09-18T23:19:25.868Z,100656.19
2022-09-18T23:21:54.138Z,100648.91
2022-09-18T23:24:22.281Z,100648.69
2022-09-18T23:26:52.647Z,100651.53
2022-09-18T23:29:21.242Z,100646.72
2022-09-18T23:31:52.759Z,100638.09
2022-09-18T23:34:22.025Z,100641.09
2022-09-18T23:36:51.240Z,100643.44
2022-09-18T23:39:21.301Z,100640.09
2022-09-18T23:41:49.156Z,100642.59
2022-09-18T23:44:19.127Z,100639.09
2022-09-18T23:46:47.443Z,100641.13
2022-09-18T23:49:15.833Z,100653.03
2022-09-18T23:51:45.949Z,100656.66
2022-09-18T23:54:16.555Z,100658.81
2022-09-18T23:56:44.196Z,100661.31
2022-09-18T23:59:13.069Z,100665.63
